Portland, Texas
Current Conditions -  °F | °C
As of 3:35 AM on Thursday 27 Nov 2014 (Local Time) from KTFP Reporting Station
Clear Clear  
Wind Chill: 13°   Ceiling: Unl
Heat Index: 13°   Visibility: 10mi
Dew Point: 11°   Wind: 3mph
Humidity: 88%   Direction: 340°NNW
Pressure: 30.34"   Gusts: NA
Location:  27.88°N, 97.32°W
Report Text: KTFP 270935Z AUTO 34003KT 10SM CLR 13/11 A3034 RMK AO2 T01250105
Loading
Personal Weather Stations






























Interactive Weather Map New forecast layout! Learn more

10-Day Weather Forecast

Advertisements
Track Severe Weather on mobile